KCVG/CVG METAR and TAF weather

Enter ICAO airport designator
Station Type Date Time Source
KCVG METAR 2021/07/28 18:52 UTC NOAA

KCVG 281852Z VRB05KT 9SM FEW039 FEW300 30/19 A3006 RMK AO2 SLP168 T03000194


Station Type Date Time Source
KCVG Decoded METAR 2021/07/28 18:52 UTC NOAA

CINCINNATI/NORTHERN KY INTERNATIONAL , KY, United States (KCVG) 39-03N 084-40W 269M
Jul 28, 2021 - 02:52 PM EDT / 2021.07.28 1852 UTC
Wind: Variable at 6 MPH (5 KT):0
Visibility: 9 mile(s):0
Sky conditions: mostly clear
Temperature: 86.0 F (30.0 C)
Dew Point: 66.9 F (19.4 C)
Relative Humidity: 53%
Pressure (altimeter): 30.06 in. Hg (1017 hPa)
ob: KCVG 281852Z VRB05KT 9SM FEW039 FEW300 30/19 A3006 RMK AO2 SLP168 T03000194
cycle: 19

Station Type Date Time Source
KCVG TAF 2021/07/28 18:39 UTC NOAA

TAF KCVG 281736Z 2818/2924 30008KT P6SM SCT035
FM290000 28003KT P6SM FEW250
FM291400 24009KT P6SM BKN100
FM291900 26012G20KT P6SM VCSH BKN080

Example: see airport list